sensor_id;sensor_type;location;lat;lon;timestamp;temperature;humidity
25923;DHT22;13725;51.170;4.442;2022-07-06T00:04:32;15.80;99.90
25923;DHT22;13725;51.170;4.442;2022-07-06T00:10:45;15.80;99.90
25923;DHT22;13725;51.170;4.442;2022-07-06T00:16:58;15.60;99.90
25923;DHT22;13725;51.170;4.442;2022-07-06T00:23:11;15.30;99.90
25923;DHT22;13725;51.170;4.442;2022-07-06T00:29:24;15.10;99.90
25923;DHT22;13725;51.170;4.442;2022-07-06T00:35:37;15.10;99.90
25923;DHT22;13725;51.170;4.442;2022-07-06T00:41:50;15.10;99.90
25923;DHT22;13725;51.170;4.442;2022-07-06T00:48:04;15.10;99.90
25923;DHT22;13725;51.170;4.442;2022-07-06T00:58:05;15.10;99.90
25923;DHT22;13725;51.170;4.442;2022-07-06T01:04:18;15.00;99.90
25923;DHT22;13725;51.170;4.442;2022-07-06T01:10:31;14.80;99.90
25923;DHT22;13725;51.170;4.442;2022-07-06T01:16:44;14.70;99.90
25923;DHT22;13725;51.170;4.442;2022-07-06T01:22:59;14.60;99.90
25923;DHT22;13725;51.170;4.442;2022-07-06T01:29:12;14.50;99.90
25923;DHT22;13725;51.170;4.442;2022-07-06T01:35:33;14.40;99.90
25923;DHT22;13725;51.170;4.442;2022-07-06T01:41:48;14.40;99.90
25923;DHT22;13725;51.170;4.442;2022-07-06T01:48:05;14.30;99.90
25923;DHT22;13725;51.170;4.442;2022-07-06T01:58:06;14.10;99.90
25923;DHT22;13725;51.170;4.442;2022-07-06T02:04:20;14.00;99.90
25923;DHT22;13725;51.170;4.442;2022-07-06T02:10:34;14.10;99.90
25923;DHT22;13725;51.170;4.442;2022-07-06T02:16:54;14.20;99.90
25923;DHT22;13725;51.170;4.442;2022-07-06T02:23:07;14.30;99.90
25923;DHT22;13725;51.170;4.442;2022-07-06T02:29:20;14.40;99.90
25923;DHT22;13725;51.170;4.442;2022-07-06T02:35:34;14.60;99.90
25923;DHT22;13725;51.170;4.442;2022-07-06T02:41:48;14.70;99.90
25923;DHT22;13725;51.170;4.442;2022-07-06T02:48:03;14.70;99.90
25923;DHT22;13725;51.170;4.442;2022-07-06T02:58:03;14.40;99.90
25923;DHT22;13725;51.170;4.442;2022-07-06T03:04:17;14.40;99.90
25923;DHT22;13725;51.170;4.442;2022-07-06T03:10:31;14.40;99.90
25923;DHT22;13725;51.170;4.442;2022-07-06T03:16:46;14.60;99.90
25923;DHT22;13725;51.170;4.442;2022-07-06T03:22:58;14.70;99.90
25923;DHT22;13725;51.170;4.442;2022-07-06T03:29:12;14.80;99.90
25923;DHT22;13725;51.170;4.442;2022-07-06T03:35:25;14.80;99.90
25923;DHT22;13725;51.170;4.442;2022-07-06T03:41:40;14.80;99.90
25923;DHT22;13725;51.170;4.442;2022-07-06T03:47:55;14.60;99.90
25923;DHT22;13725;51.170;4.442;2022-07-06T03:57:56;14.50;99.90
25923;DHT22;13725;51.170;4.442;2022-07-06T04:04:11;14.40;99.90
25923;DHT22;13725;51.170;4.442;2022-07-06T04:10:27;14.40;99.90
25923;DHT22;13725;51.170;4.442;2022-07-06T04:16:42;14.30;99.90
25923;DHT22;13725;51.170;4.442;2022-07-06T04:22:56;14.40;99.90
25923;DHT22;13725;51.170;4.442;2022-07-06T04:29:10;14.40;99.90
25923;DHT22;13725;51.170;4.442;2022-07-06T04:35:24;14.50;99.90
25923;DHT22;13725;51.170;4.442;2022-07-06T04:41:40;14.50;99.90
25923;DHT22;13725;51.170;4.442;2022-07-06T04:47:52;14.70;99.90
25923;DHT22;13725;51.170;4.442;2022-07-06T04:57:53;14.80;99.90
25923;DHT22;13725;51.170;4.442;2022-07-06T05:04:08;14.90;99.90
25923;DHT22;13725;51.170;4.442;2022-07-06T05:10:22;15.10;99.90
25923;DHT22;13725;51.170;4.442;2022-07-06T05:16:38;15.10;99.90
25923;DHT22;13725;51.170;4.442;2022-07-06T05:22:52;15.30;99.90
25923;DHT22;13725;51.170;4.442;2022-07-06T05:29:10;15.60;99.90
25923;DHT22;13725;51.170;4.442;2022-07-06T05:35:24;15.90;99.90
25923;DHT22;13725;51.170;4.442;2022-07-06T05:41:38;16.30;99.90
25923;DHT22;13725;51.170;4.442;2022-07-06T05:47:52;16.90;99.90
25923;DHT22;13725;51.170;4.442;2022-07-06T05:58:13;17.90;99.90
25923;DHT22;13725;51.170;4.442;2022-07-06T06:04:28;18.50;99.90
25923;DHT22;13725;51.170;4.442;2022-07-06T06:10:42;20.90;99.90
25923;DHT22;13725;51.170;4.442;2022-07-06T06:16:59;24.40;99.90
25923;DHT22;13725;51.170;4.442;2022-07-06T06:23:12;26.30;99.90
25923;DHT22;13725;51.170;4.442;2022-07-06T06:29:26;27.30;99.90
25923;DHT22;13725;51.170;4.442;2022-07-06T06:35:48;28.60;99.90
25923;DHT22;13725;51.170;4.442;2022-07-06T06:42:00;27.50;99.90
25923;DHT22;13725;51.170;4.442;2022-07-06T06:48:19;28.60;98.70
25923;DHT22;13725;51.170;4.442;2022-07-06T06:58:19;30.90;93.20
25923;DHT22;13725;51.170;4.442;2022-07-06T07:04:33;31.30;90.20
25923;DHT22;13725;51.170;4.442;2022-07-06T07:10:47;31.70;86.70
25923;DHT22;13725;51.170;4.442;2022-07-06T07:17:01;32.60;81.40
25923;DHT22;13725;51.170;4.442;2022-07-06T07:23:13;33.50;79.20
25923;DHT22;13725;51.170;4.442;2022-07-06T07:29:27;33.80;77.10
25923;DHT22;13725;51.170;4.442;2022-07-06T07:35:41;33.40;73.80
25923;DHT22;13725;51.170;4.442;2022-07-06T07:41:54;33.10;73.20
25923;DHT22;13725;51.170;4.442;2022-07-06T07:48:08;33.90;72.00
25923;DHT22;13725;51.170;4.442;2022-07-06T07:58:10;35.70;67.20
25923;DHT22;13725;51.170;4.442;2022-07-06T08:04:23;35.80;64.70
25923;DHT22;13725;51.170;4.442;2022-07-06T08:10:36;36.10;64.10
25923;DHT22;13725;51.170;4.442;2022-07-06T08:16:49;36.10;63.40
25923;DHT22;13725;51.170;4.442;2022-07-06T08:23:02;36.30;62.60
25923;DHT22;13725;51.170;4.442;2022-07-06T08:29:15;37.00;61.10
25923;DHT22;13725;51.170;4.442;2022-07-06T08:35:28;37.20;59.70
25923;DHT22;13725;51.170;4.442;2022-07-06T08:41:42;36.70;59.60
25923;DHT22;13725;51.170;4.442;2022-07-06T08:48:04;34.50;62.10
25923;DHT22;13725;51.170;4.442;2022-07-06T08:54:18;32.40;66.10
25923;DHT22;13725;51.170;4.442;2022-07-06T09:04:22;30.70;67.80
25923;DHT22;13725;51.170;4.442;2022-07-06T09:10:36;29.50;70.60
25923;DHT22;13725;51.170;4.442;2022-07-06T09:17:02;28.80;72.40
25923;DHT22;13725;51.170;4.442;2022-07-06T09:23:19;29.60;70.90
25923;DHT22;13725;51.170;4.442;2022-07-06T09:29:32;29.50;73.40
25923;DHT22;13725;51.170;4.442;2022-07-06T09:35:46;30.40;71.00
25923;DHT22;13725;51.170;4.442;2022-07-06T09:42:03;31.70;69.20
25923;DHT22;13725;51.170;4.442;2022-07-06T09:48:19;34.20;66.70
25923;DHT22;13725;51.170;4.442;2022-07-06T09:58:22;34.60;62.00
25923;DHT22;13725;51.170;4.442;2022-07-06T10:04:36;33.60;65.50
25923;DHT22;13725;51.170;4.442;2022-07-06T10:10:50;35.00;64.40
25923;DHT22;13725;51.170;4.442;2022-07-06T10:17:04;35.70;62.50
25923;DHT22;13725;51.170;4.442;2022-07-06T10:23:18;35.60;62.80
25923;DHT22;13725;51.170;4.442;2022-07-06T10:29:32;35.50;62.40
25923;DHT22;13725;51.170;4.442;2022-07-06T10:35:45;34.10;64.00
25923;DHT22;13725;51.170;4.442;2022-07-06T10:41:59;32.50;67.90
25923;DHT22;13725;51.170;4.442;2022-07-06T10:54:39;32.80;65.90
25923;DHT22;13725;51.170;4.442;2022-07-06T11:00:54;34.50;64.10
25923;DHT22;13725;51.170;4.442;2022-07-06T11:13:28;36.50;61.40
25923;DHT22;13725;51.170;4.442;2022-07-06T11:19:49;36.20;61.10
25923;DHT22;13725;51.170;4.442;2022-07-06T11:26:03;35.20;61.90
25923;DHT22;13725;51.170;4.442;2022-07-06T11:32:23;34.50;63.60
25923;DHT22;13725;51.170;4.442;2022-07-06T11:49:05;31.90;66.60
25923;DHT22;13725;51.170;4.442;2022-07-06T11:59:06;30.40;67.70
25923;DHT22;13725;51.170;4.442;2022-07-06T12:16:15;34.80;64.10
25923;DHT22;13725;51.170;4.442;2022-07-06T12:22:29;35.60;63.70
25923;DHT22;13725;51.170;4.442;2022-07-06T12:28:43;34.10;65.10
25923;DHT22;13725;51.170;4.442;2022-07-06T12:45:41;34.30;64.20
25923;DHT22;13725;51.170;4.442;2022-07-06T12:58:19;32.90;66.80
25923;DHT22;13725;51.170;4.442;2022-07-06T13:04:32;37.50;61.80
25923;DHT22;13725;51.170;4.442;2022-07-06T13:10:46;39.50;58.50
25923;DHT22;13725;51.170;4.442;2022-07-06T13:17:00;35.90;61.80
25923;DHT22;13725;51.170;4.442;2022-07-06T13:23:14;33.20;66.20
25923;DHT22;13725;51.170;4.442;2022-07-06T13:29:28;31.70;69.90
25923;DHT22;13725;51.170;4.442;2022-07-06T13:35:42;32.50;68.60
25923;DHT22;13725;51.170;4.442;2022-07-06T13:41:56;32.30;68.30
25923;DHT22;13725;51.170;4.442;2022-07-06T13:48:10;31.60;70.00
25923;DHT22;13725;51.170;4.442;2022-07-06T13:54:24;31.10;71.40
25923;DHT22;13725;51.170;4.442;2022-07-06T14:00:38;30.60;72.70
25923;DHT22;13725;51.170;4.442;2022-07-06T14:06:51;29.90;74.00
25923;DHT22;13725;51.170;4.442;2022-07-06T14:13:05;29.60;75.40
25923;DHT22;13725;51.170;4.442;2022-07-06T14:19:19;29.90;73.60
25923;DHT22;13725;51.170;4.442;2022-07-06T14:25:36;30.10;74.70
25923;DHT22;13725;51.170;4.442;2022-07-06T14:31:49;30.30;74.30
25923;DHT22;13725;51.170;4.442;2022-07-06T14:38:03;29.90;73.40
25923;DHT22;13725;51.170;4.442;2022-07-06T14:44:16;29.60;75.90
25923;DHT22;13725;51.170;4.442;2022-07-06T14:50:29;29.40;75.00
25923;DHT22;13725;51.170;4.442;2022-07-06T14:56:43;29.00;75.70
25923;DHT22;13725;51.170;4.442;2022-07-06T15:02:57;29.10;76.60
25923;DHT22;13725;51.170;4.442;2022-07-06T15:09:11;28.80;76.70
25923;DHT22;13725;51.170;4.442;2022-07-06T15:15:24;28.30;78.60
25923;DHT22;13725;51.170;4.442;2022-07-06T15:21:37;27.80;78.20
25923;DHT22;13725;51.170;4.442;2022-07-06T15:27:50;27.50;78.40
25923;DHT22;13725;51.170;4.442;2022-07-06T15:34:04;27.60;81.10
25923;DHT22;13725;51.170;4.442;2022-07-06T15:40:30;27.80;79.10
25923;DHT22;13725;51.170;4.442;2022-07-06T15:46:50;28.30;78.70
25923;DHT22;13725;51.170;4.442;2022-07-06T15:53:04;28.30;78.90
25923;DHT22;13725;51.170;4.442;2022-07-06T15:59:17;28.00;81.50
25923;DHT22;13725;51.170;4.442;2022-07-06T16:05:30;26.80;83.00
25923;DHT22;13725;51.170;4.442;2022-07-06T16:11:44;26.20;85.00
25923;DHT22;13725;51.170;4.442;2022-07-06T16:17:58;25.90;86.80
25923;DHT22;13725;51.170;4.442;2022-07-06T16:24:11;25.70;87.20
25923;DHT22;13725;51.170;4.442;2022-07-06T16:41:10;24.30;90.50
25923;DHT22;13725;51.170;4.442;2022-07-06T16:47:24;24.40;90.80
25923;DHT22;13725;51.170;4.442;2022-07-06T16:53:38;24.60;91.20
25923;DHT22;13725;51.170;4.442;2022-07-06T16:59:51;24.30;91.00
25923;DHT22;13725;51.170;4.442;2022-07-06T17:09:52;24.00;92.00
25923;DHT22;13725;51.170;4.442;2022-07-06T17:16:06;24.20;92.00
25923;DHT22;13725;51.170;4.442;2022-07-06T17:22:20;24.20;91.80
25923;DHT22;13725;51.170;4.442;2022-07-06T17:28:33;24.10;92.50
25923;DHT22;13725;51.170;4.442;2022-07-06T17:34:47;24.10;92.00
25923;DHT22;13725;51.170;4.442;2022-07-06T17:41:01;24.00;91.50
25923;DHT22;13725;51.170;4.442;2022-07-06T17:47:14;23.60;92.20
25923;DHT22;13725;51.170;4.442;2022-07-06T17:53:28;23.50;93.30
25923;DHT22;13725;51.170;4.442;2022-07-06T17:59:49;23.50;94.80
25923;DHT22;13725;51.170;4.442;2022-07-06T18:10:16;23.10;97.70
25923;DHT22;13725;51.170;4.442;2022-07-06T18:16:30;22.90;99.90
25923;DHT22;13725;51.170;4.442;2022-07-06T18:33:27;22.70;99.90
25923;DHT22;13725;51.170;4.442;2022-07-06T18:39:40;22.60;99.90
25923;DHT22;13725;51.170;4.442;2022-07-06T18:45:53;22.60;99.90
25923;DHT22;13725;51.170;4.442;2022-07-06T18:52:06;22.60;99.90
25923;DHT22;13725;51.170;4.442;2022-07-06T18:58:19;22.40;99.90
25923;DHT22;13725;51.170;4.442;2022-07-06T19:04:33;22.40;99.90
25923;DHT22;13725;51.170;4.442;2022-07-06T19:10:46;22.20;99.90
25923;DHT22;13725;51.170;4.442;2022-07-06T19:17:00;22.00;99.90
25923;DHT22;13725;51.170;4.442;2022-07-06T19:27:01;21.90;99.90
25923;DHT22;13725;51.170;4.442;2022-07-06T19:33:14;21.80;99.90
25923;DHT22;13725;51.170;4.442;2022-07-06T19:39:28;21.70;99.90
25923;DHT22;13725;51.170;4.442;2022-07-06T19:45:42;21.60;99.90
25923;DHT22;13725;51.170;4.442;2022-07-06T19:51:56;21.50;99.90
25923;DHT22;13725;51.170;4.442;2022-07-06T19:58:09;21.50;99.90
25923;DHT22;13725;51.170;4.442;2022-07-06T20:04:23;21.40;99.90
25923;DHT22;13725;51.170;4.442;2022-07-06T20:10:36;21.40;99.90
25923;DHT22;13725;51.170;4.442;2022-07-06T20:16:50;21.40;99.90
25923;DHT22;13725;51.170;4.442;2022-07-06T20:26:52;21.40;99.90
25923;DHT22;13725;51.170;4.442;2022-07-06T20:33:06;21.30;99.90
25923;DHT22;13725;51.170;4.442;2022-07-06T20:39:19;21.30;99.90
25923;DHT22;13725;51.170;4.442;2022-07-06T20:45:33;21.20;99.90
25923;DHT22;13725;51.170;4.442;2022-07-06T20:51:46;21.30;99.90
25923;DHT22;13725;51.170;4.442;2022-07-06T20:57:59;21.20;99.90
25923;DHT22;13725;51.170;4.442;2022-07-06T21:04:13;21.00;99.90
25923;DHT22;13725;51.170;4.442;2022-07-06T21:10:26;20.90;99.90
25923;DHT22;13725;51.170;4.442;2022-07-06T21:16:41;20.80;99.90
25923;DHT22;13725;51.170;4.442;2022-07-06T21:22:54;20.60;99.90
25923;DHT22;13725;51.170;4.442;2022-07-06T21:29:09;20.40;99.90
25923;DHT22;13725;51.170;4.442;2022-07-06T21:35:22;20.30;99.90
25923;DHT22;13725;51.170;4.442;2022-07-06T21:41:36;20.20;99.90
25923;DHT22;13725;51.170;4.442;2022-07-06T21:47:49;20.00;99.90
25923;DHT22;13725;51.170;4.442;2022-07-06T21:54:02;19.80;99.90
25923;DHT22;13725;51.170;4.442;2022-07-06T22:00:16;19.60;99.90
25923;DHT22;13725;51.170;4.442;2022-07-06T22:06:30;19.60;99.90
25923;DHT22;13725;51.170;4.442;2022-07-06T22:12:44;19.50;99.90
25923;DHT22;13725;51.170;4.442;2022-07-06T22:18:57;19.40;99.90
25923;DHT22;13725;51.170;4.442;2022-07-06T22:25:11;19.30;99.90
25923;DHT22;13725;51.170;4.442;2022-07-06T22:31:24;19.40;99.90
25923;DHT22;13725;51.170;4.442;2022-07-06T22:37:38;19.60;99.90
25923;DHT22;13725;51.170;4.442;2022-07-06T22:43:52;19.70;99.90
25923;DHT22;13725;51.170;4.442;2022-07-06T22:50:06;19.70;99.90
25923;DHT22;13725;51.170;4.442;2022-07-06T22:56:21;19.80;99.90
25923;DHT22;13725;51.170;4.442;2022-07-06T23:02:34;19.80;99.90
25923;DHT22;13725;51.170;4.442;2022-07-06T23:08:49;19.60;99.90
25923;DHT22;13725;51.170;4.442;2022-07-06T23:15:04;19.40;99.90
25923;DHT22;13725;51.170;4.442;2022-07-06T23:21:17;19.30;99.90
25923;DHT22;13725;51.170;4.442;2022-07-06T23:27:31;19.40;99.90
25923;DHT22;13725;51.170;4.442;2022-07-06T23:33:44;19.40;99.90
25923;DHT22;13725;51.170;4.442;2022-07-06T23:39:58;19.50;99.90
25923;DHT22;13725;51.170;4.442;2022-07-06T23:46:11;19.70;99.90
25923;DHT22;13725;51.170;4.442;2022-07-06T23:52:24;19.80;99.90
25923;DHT22;13725;51.170;4.442;2022-07-06T23:58:38;19.80;99.90
